createdAt,value
2019-03-25T00:01:05.507Z,14.13
2019-03-25T00:03:34.224Z,15.50
2019-03-25T00:06:02.941Z,15.90
2019-03-25T00:08:31.682Z,16.10
2019-03-25T00:11:00.384Z,16.40
2019-03-25T00:13:29.085Z,16.10
2019-03-25T00:15:57.854Z,15.80
2019-03-25T00:18:26.559Z,14.67
2019-03-25T00:20:55.265Z,13.73
2019-03-25T00:23:24.015Z,13.27
2019-03-25T00:25:52.722Z,13.63
2019-03-25T00:28:21.428Z,13.37
2019-03-25T00:30:53.039Z,12.80
2019-03-25T00:33:21.749Z,14.07
2019-03-25T00:35:50.459Z,12.60
2019-03-25T00:38:19.225Z,12.90
2019-03-25T00:40:47.934Z,12.70
2019-03-25T00:43:16.638Z,12.83
2019-03-25T00:45:52.917Z,13.23
2019-03-25T00:48:21.625Z,14.17
2019-03-25T00:50:56.617Z,13.90
2019-03-25T00:53:25.324Z,14.57
2019-03-25T00:55:54.028Z,14.07
2019-03-25T00:58:22.777Z,14.50
2019-03-25T01:00:51.481Z,13.93
2019-03-25T01:03:20.192Z,13.53
2019-03-25T01:05:52.475Z,11.93
2019-03-25T01:08:21.199Z,12.47
2019-03-25T01:10:49.919Z,13.90
2019-03-25T01:13:18.703Z,13.87
2019-03-25T01:15:47.397Z,13.27
2019-03-25T01:18:17.298Z,11.83
2019-03-25T01:20:50.712Z,11.80
2019-03-25T01:23:19.422Z,12.07
2019-03-25T01:25:51.772Z,11.47
2019-03-25T01:28:20.502Z,11.03
2019-03-25T01:30:49.208Z,11.43
2019-03-25T01:33:17.938Z,11.30
2019-03-25T01:35:46.665Z,12.00
2019-03-25T01:38:15.415Z,11.90
2019-03-25T01:40:44.133Z,11.70
2019-03-25T01:43:12.836Z,11.60
2019-03-25T01:45:41.546Z,11.80
2019-03-25T01:48:10.254Z,11.97
2019-03-25T01:50:39.020Z,11.43
2019-03-25T01:53:07.741Z,12.10
2019-03-25T01:55:36.454Z,12.10
2019-03-25T01:58:05.205Z,12.33
2019-03-25T02:00:33.916Z,12.40
2019-03-25T02:03:02.635Z,12.83
2019-03-25T02:05:31.385Z,11.93
2019-03-25T02:08:00.097Z,13.03
2019-03-25T02:10:28.800Z,11.93
2019-03-25T02:12:57.557Z,13.33
2019-03-25T02:15:26.259Z,13.97
2019-03-25T02:17:54.968Z,12.33
2019-03-25T02:20:26.665Z,12.30
2019-03-25T02:22:54.320Z,12.77
2019-03-25T02:25:25.726Z,11.90
2019-03-25T02:27:53.869Z,13.17
2019-03-25T02:30:22.579Z,13.53
2019-03-25T02:32:51.292Z,13.77
2019-03-25T02:35:20.032Z,19.60
2019-03-25T02:37:48.738Z,18.57
2019-03-25T02:40:17.445Z,16.50
2019-03-25T02:42:52.084Z,13.23
2019-03-25T02:45:20.796Z,12.50
2019-03-25T02:47:49.497Z,12.13
2019-03-25T02:50:18.258Z,12.37
2019-03-25T02:52:46.971Z,11.70
2019-03-25T02:55:15.680Z,10.63
2019-03-25T02:57:44.444Z,11.50
2019-03-25T03:00:15.978Z,11.93
2019-03-25T03:02:44.685Z,11.80
2019-03-25T03:05:13.462Z,11.77
2019-03-25T03:07:42.174Z,11.77
2019-03-25T03:10:11.482Z,11.53
2019-03-25T03:12:40.246Z,12.50
2019-03-25T03:15:08.954Z,12.33
2019-03-25T03:17:37.662Z,11.10
2019-03-25T03:20:08.013Z,11.17
2019-03-25T03:22:36.721Z,12.50
2019-03-25T03:25:05.725Z,13.67
2019-03-25T03:27:34.470Z,12.73
2019-03-25T03:30:03.203Z,13.07
2019-03-25T03:32:31.914Z,12.27
2019-03-25T03:35:01.109Z,12.23
2019-03-25T03:37:30.023Z,11.90
2019-03-25T03:39:58.738Z,12.40
2019-03-25T03:42:27.494Z,11.97
2019-03-25T03:44:56.192Z,12.67
2019-03-25T03:47:24.909Z,12.73
2019-03-25T03:49:53.665Z,13.57
2019-03-25T03:52:22.378Z,14.20
2019-03-25T03:54:55.021Z,13.83
2019-03-25T03:57:24.898Z,13.07
2019-03-25T03:59:53.623Z,12.40
2019-03-25T04:02:22.320Z,12.70
2019-03-25T04:04:52.081Z,11.93
2019-03-25T04:07:20.783Z,11.93
2019-03-25T04:09:49.491Z,12.33
2019-03-25T04:12:18.342Z,11.40
2019-03-25T04:14:47.121Z,12.00
2019-03-25T04:17:15.835Z,12.93
2019-03-25T04:19:44.610Z,12.00
2019-03-25T04:22:13.306Z,17.17
2019-03-25T04:24:42.048Z,17.50
2019-03-25T04:27:10.799Z,19.43
2019-03-25T04:29:39.514Z,17.77
2019-03-25T04:32:08.231Z,16.77
2019-03-25T04:34:37.029Z,28.07
2019-03-25T04:37:05.770Z,37.50
2019-03-25T04:39:34.492Z,38.97
2019-03-25T04:42:04.246Z,36.63
2019-03-25T04:44:33.394Z,29.23
2019-03-25T04:47:02.124Z,26.67
2019-03-25T04:49:30.870Z,31.23
2019-03-25T04:51:59.577Z,25.00
2019-03-25T04:54:28.314Z,24.83
2019-03-25T04:56:57.402Z,24.47
2019-03-25T04:59:26.134Z,18.20
2019-03-25T05:01:54.973Z,16.73
2019-03-25T05:04:23.684Z,21.17
2019-03-25T05:06:52.397Z,19.20
2019-03-25T05:09:21.110Z,20.80
2019-03-25T05:11:55.962Z,30.63
2019-03-25T05:14:24.672Z,26.97
2019-03-25T05:16:53.375Z,25.13
2019-03-25T05:19:22.143Z,26.10
2019-03-25T05:21:50.840Z,28.17
2019-03-25T05:24:19.558Z,31.27
2019-03-25T05:26:54.833Z,26.73
2019-03-25T05:29:23.554Z,25.80
2019-03-25T05:31:52.266Z,26.97
2019-03-25T05:34:21.017Z,24.13
2019-03-25T05:36:49.725Z,21.97
2019-03-25T05:39:18.437Z,20.67
2019-03-25T05:41:56.018Z,24.97
2019-03-25T05:44:24.730Z,18.73
2019-03-25T05:46:53.454Z,21.03
2019-03-25T05:49:22.214Z,21.60
2019-03-25T05:51:50.940Z,23.33
2019-03-25T05:54:19.658Z,23.87
2019-03-25T05:57:02.774Z,23.07
2019-03-25T05:59:28.936Z,24.07
2019-03-25T06:01:59.159Z,28.03
2019-03-25T06:04:27.928Z,27.43
2019-03-25T06:06:56.641Z,29.83
2019-03-25T06:09:25.352Z,27.43
2019-03-25T06:11:54.611Z,20.63
2019-03-25T06:14:23.316Z,18.93
2019-03-25T06:16:52.028Z,17.83
2019-03-25T06:19:20.789Z,18.83
2019-03-25T06:21:49.497Z,18.20
2019-03-25T06:24:18.208Z,17.47
2019-03-25T06:26:52.161Z,17.07
2019-03-25T06:29:20.868Z,17.60
2019-03-25T06:31:49.573Z,17.63
2019-03-25T06:34:18.337Z,16.83
2019-03-25T06:36:47.030Z,16.67
2019-03-25T06:39:15.745Z,16.27
2019-03-25T06:41:44.504Z,16.07
2019-03-25T06:44:13.204Z,16.27
2019-03-25T06:46:41.913Z,15.70
2019-03-25T06:49:10.667Z,14.73
2019-03-25T06:51:39.370Z,15.43
2019-03-25T06:54:08.075Z,14.60
2019-03-25T06:56:36.819Z,15.20
2019-03-25T06:59:05.522Z,14.03
2019-03-25T07:01:34.233Z,14.90
2019-03-25T07:04:02.984Z,14.80
2019-03-25T07:06:31.697Z,14.70
2019-03-25T07:09:00.400Z,14.83
2019-03-25T07:11:29.150Z,14.50
2019-03-25T07:13:58.065Z,14.47
2019-03-25T07:16:26.773Z,14.43
2019-03-25T07:18:55.520Z,14.33
2019-03-25T07:21:24.229Z,14.90
2019-03-25T07:23:52.939Z,14.27
2019-03-25T07:26:21.657Z,15.63
2019-03-25T07:28:50.368Z,15.00
2019-03-25T07:31:19.122Z,14.90
2019-03-25T07:33:47.828Z,15.23
2019-03-25T07:36:16.543Z,15.67
2019-03-25T07:38:53.571Z,15.97
2019-03-25T07:41:22.281Z,15.13
2019-03-25T07:43:54.329Z,14.97
2019-03-25T07:46:23.046Z,15.70
2019-03-25T07:48:53.725Z,16.20
2019-03-25T07:51:22.439Z,15.50
2019-03-25T07:53:51.202Z,16.03
2019-03-25T07:56:19.927Z,15.73
2019-03-25T07:58:48.634Z,16.13
2019-03-25T08:01:17.348Z,15.90
2019-03-25T08:03:53.635Z,15.83
2019-03-25T08:06:22.324Z,16.77
2019-03-25T08:08:51.058Z,19.27
2019-03-25T08:11:19.757Z,21.10
2019-03-25T08:13:48.498Z,18.57
2019-03-25T08:16:17.239Z,19.10
2019-03-25T08:18:45.945Z,19.53
2019-03-25T08:21:14.665Z,20.20
2019-03-25T08:23:43.379Z,18.63
2019-03-25T08:26:12.098Z,19.53
2019-03-25T08:28:40.845Z,18.47
2019-03-25T08:31:09.566Z,18.47
2019-03-25T08:33:38.285Z,18.87
2019-03-25T08:36:07.002Z,18.70
2019-03-25T08:38:35.715Z,17.13
2019-03-25T08:41:04.459Z,17.13
2019-03-25T08:43:33.181Z,18.30
2019-03-25T08:46:01.889Z,18.43
2019-03-25T08:48:30.614Z,17.20
2019-03-25T08:50:59.330Z,15.43
2019-03-25T08:53:28.090Z,15.93
2019-03-25T08:55:56.810Z,16.90
2019-03-25T08:58:25.519Z,15.43
2019-03-25T09:00:54.234Z,15.13
2019-03-25T09:03:22.942Z,15.43
2019-03-25T09:05:52.242Z,14.83
2019-03-25T09:08:20.952Z,15.10
2019-03-25T09:10:49.671Z,14.33
2019-03-25T09:13:18.455Z,14.73
2019-03-25T09:15:47.162Z,13.53
2019-03-25T09:18:15.892Z,13.97
2019-03-25T09:20:44.686Z,15.97
2019-03-25T09:23:13.451Z,15.33
2019-03-25T09:25:42.134Z,15.43
2019-03-25T09:28:10.914Z,15.27
2019-03-25T09:30:54.711Z,14.47
2019-03-25T09:33:23.766Z,14.07
2019-03-25T09:35:52.599Z,14.30
2019-03-25T09:38:21.308Z,13.50
2019-03-25T09:40:52.967Z,13.47
2019-03-25T09:43:21.669Z,13.07
2019-03-25T09:45:50.385Z,13.60
2019-03-25T09:48:19.146Z,12.93
2019-03-25T09:50:48.169Z,13.80
2019-03-25T09:53:16.874Z,12.87
2019-03-25T09:55:55.516Z,15.23
2019-03-25T09:58:35.393Z,13.13
2019-03-25T10:00:54.657Z,13.00
2019-03-25T10:03:23.377Z,13.60
2019-03-25T10:05:52.091Z,13.50
2019-03-25T10:08:20.857Z,14.37
2019-03-25T10:10:49.573Z,13.67
2019-03-25T10:13:18.290Z,13.00
2019-03-25T10:15:52.987Z,12.90
2019-03-25T10:18:21.701Z,13.63
2019-03-25T10:20:53.131Z,13.70
2019-03-25T10:23:21.848Z,13.10
2019-03-25T10:25:50.572Z,13.53
2019-03-25T10:28:19.334Z,13.73
2019-03-25T10:30:48.158Z,12.87
2019-03-25T10:33:16.875Z,13.43
2019-03-25T10:35:52.292Z,13.80
2019-03-25T10:38:21.711Z,13.30
2019-03-25T10:40:50.415Z,14.07
2019-03-25T10:43:19.168Z,14.50
2019-03-25T10:45:47.877Z,14.40
2019-03-25T10:48:16.592Z,14.23
2019-03-25T10:50:51.181Z,13.50
2019-03-25T10:53:19.886Z,14.53
2019-03-25T10:55:48.605Z,15.67
2019-03-25T10:58:17.374Z,15.00
2019-03-25T11:00:46.098Z,15.07
2019-03-25T11:03:14.813Z,13.50
2019-03-25T11:05:43.613Z,13.97
2019-03-25T11:08:12.289Z,15.70
2019-03-25T11:10:41.020Z,14.93
2019-03-25T11:13:09.743Z,15.57
2019-03-25T11:15:38.454Z,15.10
2019-03-25T11:18:07.214Z,16.17
2019-03-25T11:20:35.933Z,17.60
2019-03-25T11:23:04.640Z,18.50
2019-03-25T11:25:33.357Z,16.40
2019-03-25T11:28:02.081Z,16.00
2019-03-25T11:30:54.632Z,15.30
2019-03-25T11:33:23.437Z,15.60
2019-03-25T11:35:52.243Z,14.50
2019-03-25T11:38:20.993Z,16.10
2019-03-25T11:40:49.803Z,14.37
2019-03-25T11:43:18.530Z,15.03
2019-03-25T11:45:52.404Z,15.27
2019-03-25T11:48:21.131Z,15.27
2019-03-25T11:50:53.734Z,14.60
2019-03-25T11:53:22.458Z,13.70
2019-03-25T11:55:51.179Z,14.30
2019-03-25T11:58:19.901Z,17.77
2019-03-25T12:00:56.145Z,14.83
2019-03-25T12:03:24.907Z,14.97
2019-03-25T12:05:54.679Z,14.60
2019-03-25T12:08:23.403Z,13.60
2019-03-25T12:10:54.581Z,14.87
2019-03-25T12:13:23.303Z,13.83
2019-03-25T12:15:53.801Z,13.67
2019-03-25T12:18:22.522Z,13.83
2019-03-25T12:20:51.232Z,15.23
2019-03-25T12:23:26.399Z,14.23
2019-03-25T12:25:50.450Z,12.70
2019-03-25T12:28:20.695Z,14.13
2019-03-25T12:30:53.906Z,13.67
2019-03-25T12:33:22.613Z,12.87
2019-03-25T12:35:51.329Z,16.33
2019-03-25T12:38:20.050Z,14.67
2019-03-25T12:40:48.761Z,13.83
2019-03-25T12:43:17.534Z,13.90
2019-03-25T12:45:46.246Z,14.53
2019-03-25T12:48:14.958Z,13.20
2019-03-25T12:50:43.759Z,14.73
2019-03-25T12:53:12.467Z,13.37
2019-03-25T12:55:41.191Z,12.50
2019-03-25T12:58:09.942Z,12.20
2019-03-25T13:00:43.473Z,11.77
2019-03-25T13:03:12.188Z,11.20
2019-03-25T13:05:40.941Z,11.83
2019-03-25T13:08:09.752Z,10.80
2019-03-25T13:10:38.472Z,11.63
2019-03-25T13:13:07.288Z,10.73
2019-03-25T13:15:36.006Z,11.67
2019-03-25T13:18:04.874Z,11.20
2019-03-25T13:20:33.578Z,11.27
2019-03-25T13:23:02.320Z,11.13
2019-03-25T13:25:31.036Z,10.33
2019-03-25T13:27:59.790Z,11.00
2019-03-25T13:30:28.544Z,11.63
2019-03-25T13:32:57.264Z,11.30
2019-03-25T13:35:25.981Z,11.23
2019-03-25T13:37:54.742Z,11.40
2019-03-25T13:40:23.465Z,11.40
2019-03-25T13:42:52.177Z,11.37
2019-03-25T13:45:20.930Z,11.50
2019-03-25T13:47:49.647Z,11.13
2019-03-25T13:50:20.209Z,10.60
2019-03-25T13:52:53.738Z,10.27
2019-03-25T13:55:22.460Z,10.20
2019-03-25T13:57:55.745Z,10.67
2019-03-25T14:00:35.921Z,10.20
2019-03-25T14:03:04.693Z,9.90
2019-03-25T14:05:33.456Z,10.27
2019-03-25T14:08:02.174Z,10.30
2019-03-25T14:10:30.896Z,10.10
2019-03-25T14:12:59.606Z,9.67
2019-03-25T14:15:28.358Z,9.47
2019-03-25T14:17:57.078Z,17.67
2019-03-25T14:20:25.812Z,14.40
2019-03-25T14:22:54.515Z,10.73
2019-03-25T14:25:23.233Z,10.57
2019-03-25T14:27:54.072Z,9.40
2019-03-25T14:30:22.900Z,19.17
2019-03-25T14:32:51.595Z,13.30
2019-03-25T14:35:20.365Z,10.37
2019-03-25T14:37:49.075Z,16.07
2019-03-25T14:40:17.790Z,10.60
2019-03-25T14:42:54.486Z,10.93
2019-03-25T14:45:26.655Z,12.33
2019-03-25T14:47:53.634Z,9.70
2019-03-25T14:50:22.410Z,10.90
2019-03-25T14:52:51.129Z,11.00
2019-03-25T14:55:19.843Z,10.03
2019-03-25T14:57:55.237Z,10.13
2019-03-25T15:00:25.543Z,11.17
2019-03-25T15:02:54.553Z,10.30
2019-03-25T15:05:23.319Z,10.10
2019-03-25T15:07:53.584Z,9.90
2019-03-25T15:10:22.287Z,9.27
2019-03-25T15:12:52.614Z,9.33
2019-03-25T15:15:21.318Z,9.77
2019-03-25T15:17:50.033Z,9.50
2019-03-25T15:20:18.814Z,8.83
2019-03-25T15:22:47.519Z,8.80
2019-03-25T15:25:16.221Z,9.60
2019-03-25T15:27:44.974Z,9.27
2019-03-25T15:30:14.188Z,9.37
2019-03-25T15:32:43.302Z,9.37
2019-03-25T15:35:12.659Z,9.57
2019-03-25T15:37:41.365Z,9.93
2019-03-25T15:40:11.926Z,9.53
2019-03-25T15:42:40.719Z,10.33
2019-03-25T15:45:10.537Z,10.27
2019-03-25T15:47:40.001Z,9.80
2019-03-25T15:50:10.391Z,10.93
2019-03-25T15:52:39.917Z,11.73
2019-03-25T15:55:09.238Z,11.20
2019-03-25T15:57:39.731Z,12.10
2019-03-25T16:00:14.483Z,10.67
2019-03-25T16:02:43.236Z,10.40
2019-03-25T16:05:12.065Z,10.53
2019-03-25T16:07:40.783Z,10.23
2019-03-25T16:10:09.639Z,10.20
2019-03-25T16:12:38.356Z,9.40
2019-03-25T16:15:07.678Z,9.50
2019-03-25T16:17:38.228Z,9.57
2019-03-25T16:20:10.668Z,10.03
2019-03-25T16:22:39.383Z,11.17
2019-03-25T16:25:08.753Z,12.13
2019-03-25T16:27:37.464Z,18.23
2019-03-25T16:30:08.078Z,23.47
2019-03-25T16:32:36.829Z,30.47
2019-03-25T16:35:06.757Z,22.00
2019-03-25T16:37:35.465Z,20.03
2019-03-25T16:40:05.744Z,27.13
2019-03-25T16:42:34.462Z,21.80
2019-03-25T16:45:03.170Z,27.33
2019-03-25T16:47:31.941Z,25.60
2019-03-25T16:50:00.666Z,19.87
2019-03-25T16:52:29.371Z,19.97
2019-03-25T16:54:58.143Z,18.17
2019-03-25T16:57:26.859Z,17.07
2019-03-25T16:59:57.111Z,18.10
2019-03-25T17:02:25.829Z,18.70
2019-03-25T17:04:54.551Z,19.67
2019-03-25T17:07:23.307Z,21.77
2019-03-25T17:09:58.207Z,21.70
2019-03-25T17:12:26.930Z,19.60
2019-03-25T17:14:55.649Z,19.77
2019-03-25T17:17:24.407Z,31.07
2019-03-25T17:19:53.331Z,38.90
2019-03-25T17:22:22.051Z,77.10
2019-03-25T17:24:50.769Z,23.77
2019-03-25T17:27:19.534Z,23.50
2019-03-25T17:29:48.248Z,25.70
2019-03-25T17:32:16.978Z,21.50
2019-03-25T17:34:53.386Z,12.90
2019-03-25T17:37:22.102Z,13.97
2019-03-25T17:39:53.338Z,19.90
2019-03-25T17:42:22.061Z,19.90
2019-03-25T17:44:50.774Z,24.07
2019-03-25T17:47:19.530Z,23.07
2019-03-25T17:49:48.251Z,22.80
2019-03-25T17:52:16.958Z,23.37
2019-03-25T17:54:53.395Z,21.83
2019-03-25T17:57:22.142Z,19.43
2019-03-25T17:59:57.793Z,28.13
2019-03-25T18:02:26.514Z,16.73
2019-03-25T18:04:55.235Z,32.90
2019-03-25T18:07:23.967Z,27.63
2019-03-25T18:09:55.539Z,32.33
2019-03-25T18:12:24.291Z,21.13
2019-03-25T18:14:53.014Z,30.67
2019-03-25T18:17:21.732Z,29.60
2019-03-25T18:19:53.392Z,18.40
2019-03-25T18:22:22.106Z,20.87
2019-03-25T18:24:50.818Z,29.37
2019-03-25T18:27:19.537Z,18.90
2019-03-25T18:29:54.312Z,16.50
2019-03-25T18:32:23.062Z,18.00
2019-03-25T18:34:51.769Z,22.57
2019-03-25T18:37:20.476Z,30.00
2019-03-25T18:39:55.404Z,27.80
2019-03-25T18:42:24.123Z,36.93
2019-03-25T18:44:52.843Z,39.17
2019-03-25T18:47:21.563Z,31.57
2019-03-25T18:49:50.276Z,35.43
2019-03-25T18:52:19.048Z,31.30
2019-03-25T18:54:47.764Z,20.83
2019-03-25T18:57:16.472Z,22.77
2019-03-25T18:59:45.255Z,30.43
2019-03-25T19:02:13.979Z,25.00
2019-03-25T19:04:42.978Z,18.90
2019-03-25T19:07:11.755Z,18.07
2019-03-25T19:09:40.481Z,19.97
2019-03-25T19:12:09.183Z,21.33
2019-03-25T19:14:37.974Z,18.73
2019-03-25T19:17:06.693Z,28.47
2019-03-25T19:19:35.414Z,40.43
2019-03-25T19:22:05.334Z,24.77
2019-03-25T19:24:34.344Z,18.97
2019-03-25T19:27:03.048Z,17.47
2019-03-25T19:29:31.810Z,18.77
2019-03-25T19:32:06.624Z,20.10
2019-03-25T19:34:30.991Z,25.67
2019-03-25T19:36:59.772Z,22.70
2019-03-25T19:39:28.504Z,29.20
2019-03-25T19:41:57.244Z,22.77
2019-03-25T19:44:25.950Z,20.07
2019-03-25T19:46:54.781Z,17.13
2019-03-25T19:49:23.490Z,15.23
2019-03-25T19:51:56.865Z,13.97
2019-03-25T19:54:25.584Z,15.60
2019-03-25T19:56:54.303Z,17.10
2019-03-25T19:59:23.061Z,22.73
2019-03-25T20:01:57.923Z,20.80
2019-03-25T20:04:26.648Z,17.60
2019-03-25T20:06:57.603Z,15.87
2019-03-25T20:09:26.323Z,15.37
2019-03-25T20:11:57.997Z,15.80
2019-03-25T20:14:26.757Z,14.47
2019-03-25T20:16:55.532Z,13.83
2019-03-25T20:19:24.296Z,12.57
2019-03-25T20:21:55.571Z,11.73
2019-03-25T20:24:24.330Z,15.43
2019-03-25T20:26:53.116Z,15.23
2019-03-25T20:29:21.896Z,12.87
2019-03-25T20:31:50.674Z,12.27
2019-03-25T20:34:19.472Z,13.17
2019-03-25T20:36:56.262Z,12.73
2019-03-25T20:39:25.004Z,13.60
2019-03-25T20:41:53.894Z,11.53
2019-03-25T20:44:22.659Z,10.67
2019-03-25T20:46:51.408Z,10.43
2019-03-25T20:49:20.156Z,10.20
2019-03-25T20:51:56.257Z,9.93
2019-03-25T20:54:25.006Z,9.90
2019-03-25T20:56:58.332Z,9.43
2019-03-25T20:59:27.099Z,9.30
2019-03-25T21:01:55.818Z,8.50
2019-03-25T21:04:24.558Z,9.20
2019-03-25T21:06:54.605Z,9.20
2019-03-25T21:09:23.741Z,9.57
2019-03-25T21:11:52.584Z,12.53
2019-03-25T21:14:21.364Z,15.53
2019-03-25T21:16:50.066Z,17.40
2019-03-25T21:19:18.840Z,16.53
2019-03-25T21:21:47.582Z,13.30
2019-03-25T21:24:16.265Z,14.20
2019-03-25T21:26:45.068Z,10.40
2019-03-25T21:29:13.799Z,9.67
2019-03-25T21:31:42.545Z,9.33
2019-03-25T21:34:11.267Z,8.77
2019-03-25T21:36:40.095Z,8.97
2019-03-25T21:39:08.776Z,9.37
2019-03-25T21:41:37.561Z,11.33
2019-03-25T21:44:06.318Z,10.70
2019-03-25T21:46:35.052Z,10.67
2019-03-25T21:49:03.773Z,10.77
2019-03-25T21:51:32.504Z,11.33
2019-03-25T21:54:01.394Z,12.60
2019-03-25T21:56:30.101Z,10.13
2019-03-25T21:59:00.425Z,9.77
2019-03-25T22:01:29.341Z,9.17
2019-03-25T22:03:58.065Z,9.63
2019-03-25T22:06:26.775Z,9.43
2019-03-25T22:08:55.492Z,13.53
2019-03-25T22:11:24.212Z,14.80
2019-03-25T22:13:55.227Z,16.50
2019-03-25T22:16:23.974Z,14.67
2019-03-25T22:18:52.690Z,14.90
2019-03-25T22:21:21.398Z,11.17
2019-03-25T22:23:54.307Z,9.50
2019-03-25T22:26:23.012Z,9.07
2019-03-25T22:28:55.060Z,10.37
2019-03-25T22:31:23.768Z,10.43
2019-03-25T22:33:52.472Z,9.07
2019-03-25T22:36:21.215Z,10.80
2019-03-25T22:38:49.923Z,8.87
2019-03-25T22:41:18.669Z,8.10
2019-03-25T22:43:47.377Z,8.57
2019-03-25T22:46:16.082Z,7.97
2019-03-25T22:48:44.834Z,7.20
2019-03-25T22:51:13.535Z,8.30
2019-03-25T22:53:42.240Z,9.60
2019-03-25T22:56:11.036Z,8.83
2019-03-25T22:58:39.742Z,9.40
2019-03-25T23:01:08.496Z,14.47
2019-03-25T23:03:39.412Z,16.13
2019-03-25T23:06:07.645Z,10.70
2019-03-25T23:08:36.400Z,9.23
2019-03-25T23:11:05.214Z,8.70
2019-03-25T23:13:33.922Z,7.83
2019-03-25T23:16:02.665Z,7.37
2019-03-25T23:18:31.371Z,8.17
2019-03-25T23:21:00.157Z,13.87
2019-03-25T23:23:28.929Z,13.20
2019-03-25T23:25:57.644Z,12.13
2019-03-25T23:28:26.355Z,12.80
2019-03-25T23:30:55.109Z,9.63
2019-03-25T23:33:23.813Z,9.23
2019-03-25T23:35:52.620Z,9.33
2019-03-25T23:38:21.366Z,10.03
2019-03-25T23:40:50.080Z,8.80
2019-03-25T23:43:18.789Z,8.57
2019-03-25T23:45:53.818Z,8.03
2019-03-25T23:48:22.525Z,8.20
2019-03-25T23:50:51.232Z,8.00
2019-03-25T23:53:19.989Z,8.43
2019-03-25T23:55:48.708Z,8.50
2019-03-25T23:58:17.417Z,8.83
